Terminal Aerodrome Forecast
Issued by NWS

Home | Current Version | Previous Version | Text Only | Print | Product List | Glossary On
Versions: 1 2 3 4 5 6 7 8 9 10 11 12 13
263
FTUS45 KRIW 060520
TAFCOD
TAF
KCOD 060520Z 0606/0706 22007KT P6SM VCSH SCT080 BKN120
     FM061100 01014G22KT P6SM VCSH SCT035 BKN060
     FM062000 02018G26KT P6SM VCTS SCT020CB BKN050
     FM070200 36011G17KT 5SM -RA SCT020 BKN030
      AMD LTD TO CLD VIS AND WIND=

USA.gov is the U.S. government's official web portal to all federal, state and local government web resources and services.